Forside
METAR-TAF:

METAR-TAF

Lufthavne :

Black River Falls, Wisconsin, USA

Breddekreds: 44-15-03N, længdekreds: 090-51-19W, højde: 255 m

Aktuelle vejr

Denne rapport blev lavet for 18 minutter siden, kl. 04:15 UTC
Vind 5 kt fra østsydøst
Temperatur -4°C
Fugtighed 93%
Tryk 1018 hPa
Sigt: 1.6 km
Brudte skyer i en højde af 1200 ft
Overskyet i en højde af 1800 ft
let sne

METAR: KBCK 180415Z AUTO 12005KT 1SM -SN BKN012 OVC018 M04/M05 A3006 RMK AO2 T10401053

Tid: 22:33 (04:33 UTC)


TAF: fraværende

Vejrobservationer og prognoser fra mere end 4000 lufthavne (METAR og TAF).

De gule og røde prikker repræsenterer de meteorologiske stationer.

Flyt musen over at se navnet på stationen.

Så klik over at se vejr observationer og prognoser.

At skifte det kort: Klik på de grønne knapper med et sort kors for at zoome ind; på den grønne knap med en bindestreg for at zoome ud; eller på de grønne pile for tilstødende kort.


METAR-TAF: